Alton, IL (62002)

12:35 AM CDT on October 31, 2014 (GMT -0500)
KILALTON7 | Change Station
CLOSE
Current Station
Personal Weather Station
Location: Alton, IL
Elevation: 489 ft
Nearby Weather Stations
Active Advisory: Freeze Warning

Elev 489 ft 38.91 °N, 90.14 °W | Updated 36 seconds ago

Mostly Cloudy
Mostly Cloudy
45.3 °F
Feels Like 45 °F
N
0.7
Wind Variable Wind from SE
Gusts 0.7 mph

Today
High -- | Low -- °F
--% Chance of Precip.
Yesterday
High -- | Low -- °F
Precip. -- in
7:26 AM 6:01 PM
First Quarter, 51% visible
Pressure 30.05 in
Visibility 10.0 miles
Clouds Overcast 3400 ft
Windchill 45 °F
Dew Point 44 °F
Humidity 95%
Rainfall 0.00 in
Snow Depth Not available.
UV 0 out of 12
Pollen 1.70 out of 12
Air Quality Not available.
Flu Activity Not available.
METAR KALN 310515Z AUTO 00000KT 10SM OVC034 09/08 A3005 RMK AO2 T00930075

More Conditions Fewer Conditions

Pressure 30.05 in
Visibility 10.0 miles
Clouds Overcast 3400 ft
Windchill 45 °F
Dew Point 44 °F
Humidity 95%
Rainfall 0.00 in
Snow Depth Not available.
UV 0 out of 12
Pollen 1.70 out of 12
Air Quality Not available.
Flu Activity Not available.
METAR KALN 310515Z AUTO 00000KT 10SM OVC034 09/08 A3005 RMK AO2 T00930075

More Conditions Fewer Conditions

10-Day Weather Forecast

Almanac

Astronomy

Oct. 31, 2014 Rise Set
Actual Time
Civil Twilight
Nautical Twilight
Astronomical Twilight
Moon
Length of Visible Light
Length of Day
Tomorrow will be .
, % of the Moon is Illuminated

Today's Extremes

State Highs State Lows

Community

WunderPhotos

Upload Photos

1,766,569 photos uploaded!

WunderBlogs® & News

Nearby

Air Quality

  Air Quality AQ Index Pollutant
Not available.

Snow Depth

Station Depth Elevation

Earthquake Activity

City Distance Mag. Time & Date
Minimum magnitude displayed is 2.5.

Coastal Water Temperatures

Place Temperature

Nearby Weather Stations